createdAt,value
2023-02-16T00:00:57.988Z,-1.17
2023-02-16T00:02:12.295Z,-1.18
2023-02-16T00:03:19.151Z,-1.18
2023-02-16T00:04:26.598Z,-1.18
2023-02-16T00:05:31.531Z,-1.19
2023-02-16T00:06:33.277Z,-1.18
2023-02-16T00:07:35.095Z,-1.18
2023-02-16T00:08:36.838Z,-1.18
2023-02-16T00:09:38.631Z,-1.18
2023-02-16T00:10:40.864Z,-1.18
2023-02-16T00:12:02.038Z,-1.18
2023-02-16T00:13:43.401Z,-1.18
2023-02-16T00:14:45.464Z,-1.17
2023-02-16T00:15:47.545Z,-1.17
2023-02-16T00:17:00.644Z,-1.16
2023-02-16T00:18:17.335Z,-1.13
2023-02-16T00:19:30.881Z,-1.11
2023-02-16T00:20:32.624Z,-1.09
2023-02-16T00:21:34.410Z,-1.08
2023-02-16T00:22:36.182Z,-1.08
2023-02-16T00:23:38.248Z,-1.08
2023-02-16T00:24:40.047Z,-1.07
2023-02-16T00:25:42.150Z,-1.06
2023-02-16T00:26:45.203Z,-1.05
2023-02-16T00:27:47.152Z,-1.04
2023-02-16T00:28:54.799Z,-1.02
2023-02-16T00:29:56.929Z,-1.01
2023-02-16T00:30:58.783Z,-1.00
2023-02-16T00:32:03.891Z,-0.98
2023-02-16T00:33:18.542Z,-0.97
2023-02-16T00:34:33.367Z,-0.96
2023-02-16T00:35:35.123Z,-0.94
2023-02-16T00:36:36.846Z,-0.93
2023-02-16T00:37:38.588Z,-0.93
2023-02-16T00:38:40.465Z,-0.95
2023-02-16T00:39:44.661Z,-0.94
2023-02-16T00:40:46.722Z,-0.94
2023-02-16T00:41:51.813Z,-0.94
2023-02-16T00:42:56.120Z,-0.93
2023-02-16T00:43:59.529Z,-0.93
2023-02-16T00:45:02.262Z,-0.92
2023-02-16T00:46:04.413Z,-0.93
2023-02-16T00:47:32.727Z,-0.93
2023-02-16T00:48:34.470Z,-0.93
2023-02-16T00:49:36.250Z,-0.93
2023-02-16T00:50:37.970Z,-0.93
2023-02-16T00:51:39.688Z,-0.93
2023-02-16T00:52:46.594Z,-0.94
2023-02-16T00:53:48.321Z,-0.93
2023-02-16T00:54:50.124Z,-0.93
2023-02-16T00:55:53.900Z,-0.93
2023-02-16T00:56:56.477Z,-0.93
2023-02-16T00:58:06.884Z,-0.93
2023-02-16T00:59:16.791Z,-0.92
2023-02-16T01:00:26.824Z,-0.91
2023-02-16T01:01:33.144Z,-0.92
2023-02-16T01:02:35.177Z,-0.92
2023-02-16T01:03:37.329Z,-0.92
2023-02-16T01:04:40.002Z,-0.92
2023-02-16T01:05:41.838Z,-0.93
2023-02-16T01:07:02.198Z,-0.93
2023-02-16T01:08:29.464Z,-0.93
2023-02-16T01:09:50.638Z,-0.94
2023-02-16T01:10:58.909Z,-0.95
2023-02-16T01:12:03.580Z,-0.94
2023-02-16T01:13:06.084Z,-0.92
2023-02-16T01:14:13.062Z,-0.92
2023-02-16T01:15:17.536Z,-0.91
2023-02-16T01:16:25.730Z,-0.91
2023-02-16T01:17:27.434Z,-0.91
2023-02-16T01:18:29.258Z,-0.92
2023-02-16T01:19:31.166Z,-0.93
2023-02-16T01:20:36.217Z,-0.93
2023-02-16T01:21:38.067Z,-0.93
2023-02-16T01:22:39.843Z,-0.94
2023-02-16T01:23:42.413Z,-0.94
2023-02-16T01:24:44.366Z,-0.94
2023-02-16T01:25:46.138Z,-0.94
2023-02-16T01:26:51.866Z,-0.94
2023-02-16T01:27:54.296Z,-0.95
2023-02-16T01:28:57.240Z,-0.96
2023-02-16T01:29:59.521Z,-0.96
2023-02-16T01:31:01.521Z,-0.96
2023-02-16T01:32:03.534Z,-0.97
2023-02-16T01:33:05.318Z,-0.99
2023-02-16T01:34:07.066Z,-0.99
2023-02-16T01:35:10.410Z,-1.00
2023-02-16T01:36:37.154Z,-1.00
2023-02-16T01:37:41.441Z,-1.00
2023-02-16T01:38:43.444Z,-1.00
2023-02-16T01:39:45.483Z,-0.99
2023-02-16T01:41:29.074Z,-0.98
2023-02-16T01:42:56.950Z,-0.97
2023-02-16T01:44:04.271Z,-0.97
2023-02-16T01:45:17.759Z,-0.97
2023-02-16T01:46:49.900Z,-0.98
2023-02-16T01:47:56.366Z,-0.99
2023-02-16T01:48:58.401Z,-0.98
2023-02-16T01:50:12.557Z,-0.98
2023-02-16T01:51:24.242Z,-0.98
2023-02-16T01:52:44.875Z,-0.97
2023-02-16T01:53:52.990Z,-0.96
2023-02-16T01:55:07.898Z,-0.95
2023-02-16T01:56:34.088Z,-0.96
2023-02-16T01:57:46.727Z,-0.95
2023-02-16T01:58:58.328Z,-0.95
2023-02-16T02:00:19.789Z,-0.96
2023-02-16T02:02:06.521Z,-0.96
2023-02-16T02:03:36.445Z,-0.95
2023-02-16T02:05:09.099Z,-0.95
2023-02-16T02:06:32.304Z,-0.94
2023-02-16T02:07:48.487Z,-0.93
2023-02-16T02:09:18.179Z,-0.93
2023-02-16T02:10:22.734Z,-0.92
2023-02-16T02:11:34.846Z,-0.92
2023-02-16T02:12:58.578Z,-0.93
2023-02-16T02:14:30.003Z,-0.94
2023-02-16T02:15:34.049Z,-0.95
2023-02-16T02:16:35.945Z,-0.97
2023-02-16T02:17:37.808Z,-0.98
2023-02-16T02:18:40.041Z,-0.98
2023-02-16T02:20:24.094Z,-1.00
2023-02-16T02:22:03.605Z,-0.99
2023-02-16T02:23:34.213Z,-1.00
2023-02-16T02:24:58.490Z,-1.01
2023-02-16T02:26:00.752Z,-1.02
2023-02-16T02:27:11.895Z,-1.04
2023-02-16T02:28:31.494Z,-1.05
2023-02-16T02:29:44.659Z,-1.07
2023-02-16T02:31:03.847Z,-1.08
2023-02-16T02:32:49.827Z,-1.08
2023-02-16T02:33:52.148Z,-1.09
2023-02-16T02:35:12.820Z,-1.07
2023-02-16T02:36:34.225Z,-1.07
2023-02-16T02:38:02.931Z,-1.06
2023-02-16T02:39:16.788Z,-1.06
2023-02-16T02:40:45.079Z,-1.05
2023-02-16T02:42:06.442Z,-1.06
2023-02-16T02:43:43.896Z,-1.06
2023-02-16T02:45:04.807Z,-1.06
2023-02-16T02:46:35.737Z,-1.05
2023-02-16T02:47:46.089Z,-1.03
2023-02-16T02:48:48.252Z,-1.03
2023-02-16T02:49:54.990Z,-1.04
2023-02-16T02:51:23.061Z,-1.05
2023-02-16T02:52:25.042Z,-1.04
2023-02-16T02:53:26.854Z,-1.04
2023-02-16T02:54:55.421Z,-1.06
2023-02-16T02:56:19.454Z,-1.07
2023-02-16T02:58:12.615Z,-1.09
2023-02-16T02:59:33.574Z,-1.12
2023-02-16T03:00:41.390Z,-1.11
2023-02-16T03:01:53.368Z,-1.10
2023-02-16T03:03:04.366Z,-1.09
2023-02-16T03:04:11.661Z,-1.09
2023-02-16T03:05:17.985Z,-1.09
2023-02-16T03:06:26.298Z,-1.10
2023-02-16T03:07:47.217Z,-1.10
2023-02-16T03:09:02.823Z,-1.11
2023-02-16T03:10:24.772Z,-1.11
2023-02-16T03:11:48.433Z,-1.13
2023-02-16T03:12:50.604Z,-1.13
2023-02-16T03:14:17.960Z,-1.13
2023-02-16T03:15:20.894Z,-1.12
2023-02-16T03:16:34.376Z,-1.13
2023-02-16T03:17:58.636Z,-1.13
2023-02-16T03:19:21.853Z,-1.15
2023-02-16T03:20:42.556Z,-1.16
2023-02-16T03:22:05.111Z,-1.16
2023-02-16T03:23:27.843Z,-1.16
2023-02-16T03:24:51.863Z,-1.16
2023-02-16T03:26:13.448Z,-1.18
2023-02-16T03:27:49.801Z,-1.18
2023-02-16T03:29:11.518Z,-1.19
2023-02-16T03:30:17.685Z,-1.21
2023-02-16T03:31:29.563Z,-1.23
2023-02-16T03:32:32.136Z,-1.24
2023-02-16T03:33:36.159Z,-1.26
2023-02-16T03:34:38.187Z,-1.28
2023-02-16T03:35:40.349Z,-1.30
2023-02-16T03:36:47.383Z,-1.30
2023-02-16T03:37:49.603Z,-1.31
2023-02-16T03:38:52.121Z,-1.31
2023-02-16T03:40:13.053Z,-1.31
2023-02-16T03:41:14.834Z,-1.33
2023-02-16T03:42:16.617Z,-1.32
2023-02-16T03:43:19.129Z,-1.33
2023-02-16T03:44:22.144Z,-1.34
2023-02-16T03:45:24.649Z,-1.35
2023-02-16T03:46:26.847Z,-1.35
2023-02-16T03:47:28.578Z,-1.36
2023-02-16T03:48:30.341Z,-1.38
2023-02-16T03:49:32.074Z,-1.39
2023-02-16T03:50:33.967Z,-1.39
2023-02-16T03:51:35.816Z,-1.40
2023-02-16T03:52:37.649Z,-1.41
2023-02-16T03:53:39.510Z,-1.41
2023-02-16T03:54:41.271Z,-1.42
2023-02-16T03:55:46.498Z,-1.42
2023-02-16T03:56:48.251Z,-1.42
2023-02-16T03:57:49.990Z,-1.42
2023-02-16T03:58:51.897Z,-1.43
2023-02-16T03:59:54.323Z,-1.44
2023-02-16T04:00:56.798Z,-1.44
2023-02-16T04:01:59.528Z,-1.45
2023-02-16T04:03:01.901Z,-1.47
2023-02-16T04:04:03.931Z,-1.48
2023-02-16T04:05:05.992Z,-1.49
2023-02-16T04:06:08.229Z,-1.49
2023-02-16T04:07:10.295Z,-1.50
2023-02-16T04:08:12.536Z,-1.50
2023-02-16T04:09:14.361Z,-1.51
2023-02-16T04:10:16.669Z,-1.51
2023-02-16T04:11:56.720Z,-1.53
2023-02-16T04:12:58.862Z,-1.54
2023-02-16T04:14:00.874Z,-1.54
2023-02-16T04:15:09.196Z,-1.55
2023-02-16T04:16:11.019Z,-1.56
2023-02-16T04:17:12.795Z,-1.57
2023-02-16T04:18:14.720Z,-1.57
2023-02-16T04:19:16.493Z,-1.58
2023-02-16T04:20:21.515Z,-1.59
2023-02-16T04:21:23.288Z,-1.59
2023-02-16T04:22:25.294Z,-1.59
2023-02-16T04:23:26.997Z,-1.58
2023-02-16T04:24:28.796Z,-1.57
2023-02-16T04:25:30.844Z,-1.58
2023-02-16T04:26:33.454Z,-1.59
2023-02-16T04:27:36.589Z,-1.59
2023-02-16T04:28:38.414Z,-1.59
2023-02-16T04:29:40.184Z,-1.60
2023-02-16T04:30:41.998Z,-1.60
2023-02-16T04:31:43.829Z,-1.60
2023-02-16T04:32:46.086Z,-1.60
2023-02-16T04:33:47.801Z,-1.60
2023-02-16T04:34:49.580Z,-1.59
2023-02-16T04:35:51.401Z,-1.59
2023-02-16T04:36:53.355Z,-1.58
2023-02-16T04:37:55.212Z,-1.57
2023-02-16T04:38:57.013Z,-1.57
2023-02-16T04:39:59.117Z,-1.57
2023-02-16T04:41:00.998Z,-1.57
2023-02-16T04:42:03.558Z,-1.58
2023-02-16T04:43:05.320Z,-1.60
2023-02-16T04:44:07.152Z,-1.62
2023-02-16T04:45:10.892Z,-1.62
2023-02-16T04:46:12.670Z,-1.62
2023-02-16T04:47:14.833Z,-1.61
2023-02-16T04:48:16.674Z,-1.61
2023-02-16T04:49:18.419Z,-1.59
2023-02-16T04:50:20.310Z,-1.58
2023-02-16T04:51:22.149Z,-1.56
2023-02-16T04:52:23.942Z,-1.56
2023-02-16T04:53:25.748Z,-1.55
2023-02-16T04:54:27.970Z,-1.53
2023-02-16T04:55:30.925Z,-1.53
2023-02-16T04:56:32.812Z,-1.52
2023-02-16T04:57:34.737Z,-1.54
2023-02-16T04:58:37.202Z,-1.54
2023-02-16T04:59:39.370Z,-1.54
2023-02-16T05:00:41.422Z,-1.55
2023-02-16T05:01:43.465Z,-1.56
2023-02-16T05:02:45.611Z,-1.55
2023-02-16T05:03:48.563Z,-1.53
2023-02-16T05:04:50.464Z,-1.52
2023-02-16T05:05:52.516Z,-1.51
2023-02-16T05:06:54.844Z,-1.51
2023-02-16T05:07:56.587Z,-1.51
2023-02-16T05:08:58.385Z,-1.51
2023-02-16T05:10:00.250Z,-1.51
2023-02-16T05:11:20.649Z,-1.52
2023-02-16T05:12:41.129Z,-1.53
2023-02-16T05:14:01.947Z,-1.53
2023-02-16T05:15:05.855Z,-1.54
2023-02-16T05:16:07.643Z,-1.54
2023-02-16T05:17:12.963Z,-1.53
2023-02-16T05:18:14.934Z,-1.54
2023-02-16T05:19:16.727Z,-1.55
2023-02-16T05:20:18.687Z,-1.55
2023-02-16T05:21:32.453Z,-1.56
2023-02-16T05:22:34.664Z,-1.57
2023-02-16T05:23:36.388Z,-1.57
2023-02-16T05:24:38.418Z,-1.58
2023-02-16T05:25:40.236Z,-1.59
2023-02-16T05:26:42.249Z,-1.60
2023-02-16T05:27:44.266Z,-1.59
2023-02-16T05:28:46.017Z,-1.60
2023-02-16T05:29:48.137Z,-1.60
2023-02-16T05:30:49.907Z,-1.60
2023-02-16T05:31:51.846Z,-1.60
2023-02-16T05:32:53.997Z,-1.62
2023-02-16T05:33:56.907Z,-1.60
2023-02-16T05:34:58.821Z,-1.59
2023-02-16T05:36:00.572Z,-1.58
2023-02-16T05:37:02.486Z,-1.59
2023-02-16T05:38:04.333Z,-1.60
2023-02-16T05:39:06.112Z,-1.61
2023-02-16T05:40:08.827Z,-1.63
2023-02-16T05:41:10.598Z,-1.63
2023-02-16T05:42:12.541Z,-1.64
2023-02-16T05:43:14.369Z,-1.64
2023-02-16T05:44:16.433Z,-1.64
2023-02-16T05:45:18.258Z,-1.63
2023-02-16T05:46:21.824Z,-1.64
2023-02-16T05:47:23.625Z,-1.64
2023-02-16T05:48:25.786Z,-1.64
2023-02-16T05:49:27.847Z,-1.65
2023-02-16T05:50:29.684Z,-1.67
2023-02-16T05:51:35.249Z,-1.68
2023-02-16T05:52:37.394Z,-1.68
2023-02-16T05:53:39.393Z,-1.68
2023-02-16T05:54:41.227Z,-1.70
2023-02-16T05:55:44.529Z,-1.71
2023-02-16T05:56:49.312Z,-1.72
2023-02-16T05:57:51.384Z,-1.73
2023-02-16T05:58:54.456Z,-1.74
2023-02-16T05:59:56.280Z,-1.75
2023-02-16T06:00:58.493Z,-1.77
2023-02-16T06:02:00.747Z,-1.78
2023-02-16T06:03:02.739Z,-1.78
2023-02-16T06:04:05.030Z,-1.77
2023-02-16T06:05:07.665Z,-1.79
2023-02-16T06:06:10.083Z,-1.80
2023-02-16T06:07:14.663Z,-1.81
2023-02-16T06:08:16.816Z,-1.81
2023-02-16T06:09:18.927Z,-1.80
2023-02-16T06:10:21.290Z,-1.79
2023-02-16T06:11:38.752Z,-1.78
2023-02-16T06:12:41.166Z,-1.76
2023-02-16T06:13:43.840Z,-1.75
2023-02-16T06:14:45.925Z,-1.73
2023-02-16T06:15:53.000Z,-1.71
2023-02-16T06:16:57.502Z,-1.68
2023-02-16T06:17:59.536Z,-1.66
2023-02-16T06:19:02.422Z,-1.67
2023-02-16T06:20:05.473Z,-1.67
2023-02-16T06:21:07.247Z,-1.68
2023-02-16T06:22:08.965Z,-1.66
2023-02-16T06:23:13.416Z,-1.66
2023-02-16T06:24:15.392Z,-1.65
2023-02-16T06:25:20.257Z,-1.65
2023-02-16T06:26:22.650Z,-1.63
2023-02-16T06:27:24.449Z,-1.63
2023-02-16T06:28:26.197Z,-1.63
2023-02-16T06:29:27.915Z,-1.62
2023-02-16T06:30:30.387Z,-1.61
2023-02-16T06:31:34.452Z,-1.61
2023-02-16T06:32:38.351Z,-1.61
2023-02-16T06:33:40.730Z,-1.62
2023-02-16T06:34:42.434Z,-1.62
2023-02-16T06:35:44.203Z,-1.62
2023-02-16T06:36:46.376Z,-1.61
2023-02-16T06:37:48.251Z,-1.61
2023-02-16T06:38:50.024Z,-1.60
2023-02-16T06:39:51.728Z,-1.59
2023-02-16T06:40:54.760Z,-1.58
2023-02-16T06:41:56.934Z,-1.58
2023-02-16T06:42:58.668Z,-1.57
2023-02-16T06:44:03.463Z,-1.57
2023-02-16T06:45:05.472Z,-1.57
2023-02-16T06:46:07.368Z,-1.58
2023-02-16T06:47:09.412Z,-1.59
2023-02-16T06:48:11.177Z,-1.60
2023-02-16T06:49:18.437Z,-1.60
2023-02-16T06:50:20.594Z,-1.59
2023-02-16T06:51:23.215Z,-1.58
2023-02-16T06:52:25.369Z,-1.57
2023-02-16T06:53:27.419Z,-1.55
2023-02-16T06:54:29.198Z,-1.53
2023-02-16T06:55:34.334Z,-1.50
2023-02-16T06:56:37.865Z,-1.48
2023-02-16T06:57:40.227Z,-1.46
2023-02-16T06:58:42.142Z,-1.46
2023-02-16T06:59:43.899Z,-1.43
2023-02-16T07:00:46.388Z,-1.42
2023-02-16T07:01:48.225Z,-1.40
2023-02-16T07:02:50.087Z,-1.38
2023-02-16T07:03:53.869Z,-1.36
2023-02-16T07:04:55.697Z,-1.33
2023-02-16T07:05:57.587Z,-1.29
2023-02-16T07:06:59.376Z,-1.27
2023-02-16T07:08:01.459Z,-1.22
2023-02-16T07:09:04.226Z,-1.18
2023-02-16T07:10:06.842Z,-1.13
2023-02-16T07:11:08.863Z,-1.09
2023-02-16T07:12:10.732Z,-1.04
2023-02-16T07:13:12.547Z,-1.01
2023-02-16T07:14:14.445Z,-0.99
2023-02-16T07:15:16.251Z,-0.96
2023-02-16T07:16:18.164Z,-0.91
2023-02-16T07:17:20.481Z,-0.87
2023-02-16T07:18:22.834Z,-0.82
2023-02-16T07:19:25.440Z,-0.77
2023-02-16T07:20:28.097Z,-0.72
2023-02-16T07:21:30.038Z,-0.65
2023-02-16T07:22:32.462Z,-0.61
2023-02-16T07:23:34.799Z,-0.56
2023-02-16T07:24:37.128Z,-0.52
2023-02-16T07:25:39.312Z,-0.49
2023-02-16T07:26:41.092Z,-0.45
2023-02-16T07:27:42.881Z,-0.40
2023-02-16T07:28:44.866Z,-0.36
2023-02-16T07:29:46.998Z,-0.33
2023-02-16T07:30:48.815Z,-0.29
2023-02-16T07:31:51.554Z,-0.25
2023-02-16T07:32:54.421Z,-0.20
2023-02-16T07:33:56.298Z,-0.16
2023-02-16T07:34:58.052Z,-0.11
2023-02-16T07:35:59.932Z,-0.05
2023-02-16T07:37:01.679Z,-0.01
2023-02-16T07:38:05.510Z,0.04
2023-02-16T07:39:07.324Z,0.10
2023-02-16T07:40:10.795Z,0.15
2023-02-16T07:41:13.590Z,0.20
2023-02-16T07:42:15.877Z,0.23
2023-02-16T07:43:21.919Z,0.27
2023-02-16T07:44:23.689Z,0.30
2023-02-16T07:45:25.505Z,0.33
2023-02-16T07:46:27.308Z,0.36
2023-02-16T07:47:29.065Z,0.41
2023-02-16T07:48:31.711Z,0.44
2023-02-16T07:49:33.755Z,0.46
2023-02-16T07:50:37.559Z,0.49
2023-02-16T07:51:40.659Z,0.51
2023-02-16T07:52:42.453Z,0.53
2023-02-16T07:53:44.201Z,0.56
2023-02-16T07:54:46.677Z,0.59
2023-02-16T07:55:48.542Z,0.61
2023-02-16T07:56:50.520Z,0.63
2023-02-16T07:57:56.440Z,0.65
2023-02-16T07:59:00.299Z,0.67
2023-02-16T08:00:02.759Z,0.69
2023-02-16T08:01:15.910Z,0.71
2023-02-16T08:02:18.364Z,0.76
2023-02-16T08:03:20.322Z,0.79
2023-02-16T08:04:22.416Z,0.83
2023-02-16T08:05:24.740Z,0.86
2023-02-16T08:06:26.441Z,0.90
2023-02-16T08:07:28.546Z,0.92
2023-02-16T08:08:31.106Z,0.96
2023-02-16T08:09:34.151Z,1.00
2023-02-16T08:10:35.935Z,1.01
2023-02-16T08:11:37.664Z,1.02
2023-02-16T08:12:39.517Z,1.02
2023-02-16T08:13:41.605Z,1.04
2023-02-16T08:14:44.445Z,1.05
2023-02-16T08:15:46.548Z,1.06
2023-02-16T08:16:51.120Z,1.07
2023-02-16T08:17:55.173Z,1.08
2023-02-16T08:19:00.056Z,1.10
2023-02-16T08:20:02.303Z,1.11
2023-02-16T08:21:17.049Z,1.13
2023-02-16T08:22:18.858Z,1.15
2023-02-16T08:23:20.920Z,1.17
2023-02-16T08:24:24.982Z,1.16
2023-02-16T08:25:27.275Z,1.18
2023-02-16T08:26:34.638Z,1.18
2023-02-16T08:27:36.440Z,1.21
2023-02-16T08:28:38.623Z,1.25
2023-02-16T08:29:41.601Z,1.30
2023-02-16T08:30:43.353Z,1.35
2023-02-16T08:31:46.749Z,1.40
2023-02-16T08:32:50.924Z,1.45
2023-02-16T08:33:57.277Z,1.49
2023-02-16T08:34:58.989Z,1.54
2023-02-16T08:36:00.781Z,1.58
2023-02-16T08:37:02.718Z,1.61
2023-02-16T08:38:07.122Z,1.64
2023-02-16T08:39:13.132Z,1.66
2023-02-16T08:40:14.997Z,1.69
2023-02-16T08:41:19.399Z,1.72
2023-02-16T08:42:21.342Z,1.74
2023-02-16T08:43:23.130Z,1.77
2023-02-16T08:44:25.946Z,1.79
2023-02-16T08:45:27.712Z,1.82
2023-02-16T08:46:30.389Z,1.85
2023-02-16T08:47:33.080Z,1.88
2023-02-16T08:48:35.520Z,1.92
2023-02-16T08:49:39.236Z,1.95
2023-02-16T08:50:53.594Z,1.98
2023-02-16T08:51:59.102Z,2.02
2023-02-16T08:53:02.402Z,2.05
2023-02-16T08:54:08.720Z,2.08
2023-02-16T08:55:10.509Z,2.11
2023-02-16T08:56:13.184Z,2.13
2023-02-16T08:57:15.879Z,2.18
2023-02-16T08:58:17.680Z,2.20
2023-02-16T08:59:21.705Z,2.23
2023-02-16T09:00:35.536Z,2.23
2023-02-16T09:01:37.597Z,2.26
2023-02-16T09:02:39.530Z,2.26
2023-02-16T09:03:44.716Z,2.28
2023-02-16T09:04:48.794Z,2.29
2023-02-16T09:05:53.192Z,2.29
2023-02-16T09:06:58.005Z,2.28
2023-02-16T09:08:00.001Z,2.25
2023-02-16T09:09:01.845Z,2.23
2023-02-16T09:10:04.675Z,2.22
2023-02-16T09:11:11.219Z,2.20
2023-02-16T09:12:12.916Z,2.21
2023-02-16T09:13:15.109Z,2.22
2023-02-16T09:14:21.600Z,2.24
2023-02-16T09:15:23.877Z,2.28
2023-02-16T09:16:27.942Z,2.31
2023-02-16T09:17:29.752Z,2.33
2023-02-16T09:18:33.069Z,2.36
2023-02-16T09:19:35.468Z,2.37
2023-02-16T09:20:39.896Z,2.37
2023-02-16T09:21:42.741Z,2.39
2023-02-16T09:23:52.505Z,2.43
2023-02-16T09:24:54.560Z,2.45
2023-02-16T09:25:56.384Z,2.45
2023-02-16T09:26:58.087Z,2.44
2023-02-16T09:27:59.880Z,2.44
2023-02-16T09:29:03.681Z,2.45
2023-02-16T09:30:06.373Z,2.46
2023-02-16T09:31:20.077Z,2.47
2023-02-16T09:32:22.915Z,2.49
2023-02-16T09:33:25.251Z,2.49
2023-02-16T09:34:27.949Z,2.50
2023-02-16T09:35:29.815Z,2.53
2023-02-16T09:36:31.975Z,2.57
2023-02-16T09:37:33.864Z,2.62
2023-02-16T09:38:36.667Z,2.66
2023-02-16T09:39:38.393Z,2.69
2023-02-16T09:40:40.579Z,2.72
2023-02-16T09:41:57.740Z,2.76
2023-02-16T09:43:20.082Z,2.81
2023-02-16T09:44:27.894Z,2.88
2023-02-16T09:45:35.271Z,2.90
2023-02-16T09:46:38.210Z,2.93
2023-02-16T09:47:45.037Z,2.97
2023-02-16T09:48:49.497Z,3.01
2023-02-16T09:49:54.255Z,3.06
2023-02-16T09:51:00.598Z,3.10
2023-02-16T09:52:19.505Z,3.14
2023-02-16T09:53:32.682Z,3.17
2023-02-16T09:54:56.386Z,3.20
2023-02-16T09:56:22.777Z,3.24
2023-02-16T09:57:36.964Z,3.29
2023-02-16T09:59:05.661Z,3.34
2023-02-16T10:00:30.147Z,3.38
2023-02-16T10:01:55.136Z,3.46
2023-02-16T10:03:23.850Z,3.52
2023-02-16T10:04:46.077Z,3.59
2023-02-16T10:06:49.690Z,3.65
2023-02-16T10:08:09.675Z,3.76
2023-02-16T10:09:16.498Z,3.80
2023-02-16T10:10:27.757Z,3.83
2023-02-16T10:11:48.804Z,3.87
2023-02-16T10:13:05.140Z,3.90
2023-02-16T10:14:17.226Z,3.92
2023-02-16T10:15:28.031Z,3.92
2023-02-16T10:16:38.847Z,3.94
2023-02-16T10:17:58.284Z,3.96
2023-02-16T10:19:08.063Z,3.99
2023-02-16T10:20:15.147Z,4.03
2023-02-16T10:21:26.084Z,4.06
2023-02-16T10:22:36.888Z,4.07
2023-02-16T10:23:48.661Z,4.09
2023-02-16T10:25:17.043Z,4.16
2023-02-16T10:26:30.545Z,4.23
2023-02-16T10:27:38.277Z,4.25
2023-02-16T10:28:46.566Z,4.27
2023-02-16T10:29:48.710Z,4.30
2023-02-16T10:31:37.041Z,4.34
2023-02-16T10:32:56.835Z,4.39
2023-02-16T10:34:35.191Z,4.42
2023-02-16T10:35:50.714Z,4.44
2023-02-16T10:37:12.818Z,4.46
2023-02-16T10:38:32.316Z,4.48
2023-02-16T10:40:06.873Z,4.53
2023-02-16T10:41:33.133Z,4.58
2023-02-16T10:43:06.094Z,4.66
2023-02-16T10:44:18.435Z,4.73
2023-02-16T10:45:52.483Z,4.77
2023-02-16T10:47:04.491Z,4.86
2023-02-16T10:48:06.609Z,4.92
2023-02-16T10:49:13.455Z,5.00
2023-02-16T10:50:31.257Z,5.09
2023-02-16T10:51:40.497Z,5.17
2023-02-16T10:52:43.166Z,5.20
2023-02-16T10:54:04.676Z,5.24
2023-02-16T10:55:07.079Z,5.30
2023-02-16T10:56:32.720Z,5.35
2023-02-16T10:57:34.451Z,5.43
2023-02-16T10:58:41.978Z,5.47
2023-02-16T10:59:46.953Z,5.49
2023-02-16T11:01:05.929Z,5.52
2023-02-16T11:02:38.185Z,5.60
2023-02-16T11:03:47.768Z,5.73
2023-02-16T11:04:54.653Z,5.82
2023-02-16T11:05:57.037Z,5.92
2023-02-16T11:07:05.396Z,6.02
2023-02-16T11:08:12.767Z,6.19
2023-02-16T11:09:15.860Z,6.36
2023-02-16T11:10:33.596Z,6.49
2023-02-16T11:11:39.065Z,6.59
2023-02-16T11:12:42.102Z,6.65
2023-02-16T11:13:49.069Z,6.69
2023-02-16T11:14:55.639Z,6.74
2023-02-16T11:16:05.269Z,6.78
2023-02-16T11:17:12.724Z,6.83
2023-02-16T11:18:29.830Z,6.87
2023-02-16T11:19:34.614Z,6.91
2023-02-16T11:20:42.583Z,6.97
2023-02-16T11:21:49.085Z,7.04
2023-02-16T11:22:51.678Z,7.07
2023-02-16T11:24:02.255Z,7.15
2023-02-16T11:25:33.795Z,7.26
2023-02-16T11:26:35.534Z,7.39
2023-02-16T11:27:59.774Z,7.46
2023-02-16T11:29:19.848Z,7.50
2023-02-16T11:30:32.765Z,7.44
2023-02-16T11:31:40.281Z,7.40
2023-02-16T11:32:42.265Z,7.31
2023-02-16T11:34:01.124Z,7.25
2023-02-16T11:35:10.090Z,7.23
2023-02-16T11:36:37.548Z,7.28
2023-02-16T11:37:40.957Z,7.45
2023-02-16T11:39:01.654Z,7.56
2023-02-16T11:40:26.152Z,7.61
2023-02-16T11:41:29.288Z,7.68
2023-02-16T11:42:43.906Z,7.68
2023-02-16T11:43:46.021Z,7.64
2023-02-16T11:44:57.156Z,7.60
2023-02-16T11:46:28.195Z,7.57
2023-02-16T11:47:34.161Z,7.49
2023-02-16T11:48:36.729Z,7.45
2023-02-16T11:49:41.923Z,7.44
2023-02-16T11:51:00.376Z,7.42
2023-02-16T11:52:18.706Z,7.36
2023-02-16T11:53:30.674Z,7.24
2023-02-16T11:54:32.478Z,7.07
2023-02-16T11:55:34.291Z,7.00
2023-02-16T11:56:37.002Z,6.98
2023-02-16T11:57:39.079Z,7.01
2023-02-16T11:58:41.064Z,7.05
2023-02-16T11:59:42.863Z,7.16
2023-02-16T12:01:22.511Z,7.28
2023-02-16T12:02:43.862Z,7.46
2023-02-16T12:04:22.564Z,7.62
2023-02-16T12:05:48.710Z,7.81
2023-02-16T12:07:20.297Z,7.91
2023-02-16T12:08:49.554Z,8.04
2023-02-16T12:10:10.218Z,8.21
2023-02-16T12:11:53.919Z,8.36
2023-02-16T12:13:14.767Z,8.54
2023-02-16T12:14:42.242Z,8.60
2023-02-16T12:15:58.308Z,8.57
2023-02-16T12:17:24.312Z,8.58
2023-02-16T12:18:32.788Z,8.57
2023-02-16T12:19:41.920Z,8.51
2023-02-16T12:21:06.969Z,8.46
2023-02-16T12:22:14.790Z,8.33
2023-02-16T12:23:31.388Z,8.32
2023-02-16T12:24:54.769Z,8.32
2023-02-16T12:26:33.193Z,8.39
2023-02-16T12:27:49.835Z,8.42
2023-02-16T12:29:22.634Z,8.47
2023-02-16T12:30:34.053Z,8.60
2023-02-16T12:31:54.585Z,8.68
2023-02-16T12:33:42.528Z,8.81
2023-02-16T12:35:17.399Z,8.95
2023-02-16T12:36:39.122Z,8.99
2023-02-16T12:38:00.258Z,9.00
2023-02-16T12:39:29.131Z,9.07
2023-02-16T12:40:46.016Z,9.14
2023-02-16T12:41:56.996Z,9.14
2023-02-16T12:43:29.207Z,9.10
2023-02-16T12:44:46.277Z,8.99
2023-02-16T12:45:50.339Z,8.93
2023-02-16T12:47:08.165Z,8.93
2023-02-16T12:48:51.545Z,8.90
2023-02-16T12:50:01.090Z,8.90
2023-02-16T12:51:10.824Z,8.98
2023-02-16T12:52:28.493Z,9.08
2023-02-16T12:54:02.889Z,9.17
2023-02-16T12:55:20.710Z,9.23
2023-02-16T12:56:33.187Z,9.27
2023-02-16T12:57:36.529Z,9.32
2023-02-16T12:58:47.258Z,9.29
2023-02-16T13:00:20.656Z,9.31
2023-02-16T13:01:31.164Z,9.32
2023-02-16T13:02:43.164Z,9.33
2023-02-16T13:03:51.169Z,9.39
2023-02-16T13:05:09.614Z,9.43
2023-02-16T13:06:43.996Z,9.42
2023-02-16T13:07:51.520Z,9.36
2023-02-16T13:09:00.893Z,9.36
2023-02-16T13:10:25.546Z,9.40
2023-02-16T13:11:40.789Z,9.51
2023-02-16T13:13:06.688Z,9.52
2023-02-16T13:14:23.293Z,9.47
2023-02-16T13:15:32.531Z,9.38
2023-02-16T13:16:56.693Z,9.25
2023-02-16T13:18:23.505Z,9.09
2023-02-16T13:19:25.813Z,9.00
2023-02-16T13:20:28.795Z,8.96
2023-02-16T13:21:51.297Z,8.88
2023-02-16T13:23:18.882Z,8.84
2023-02-16T13:24:55.495Z,8.77
2023-02-16T13:26:19.236Z,8.66
2023-02-16T13:27:32.146Z,8.57
2023-02-16T13:28:37.105Z,8.53
2023-02-16T13:30:30.147Z,8.47
2023-02-16T13:31:38.095Z,8.34
2023-02-16T13:32:59.175Z,8.31
2023-02-16T13:34:11.546Z,8.27
2023-02-16T13:35:37.088Z,8.24
2023-02-16T13:37:00.086Z,8.20
2023-02-16T13:38:53.343Z,8.18
2023-02-16T13:40:20.245Z,8.13
2023-02-16T13:41:40.451Z,8.03
2023-02-16T13:42:48.238Z,7.93
2023-02-16T13:43:58.005Z,7.81
2023-02-16T13:45:31.845Z,7.67
2023-02-16T13:46:40.879Z,7.56
2023-02-16T13:47:43.192Z,7.50
2023-02-16T13:48:49.552Z,7.49
2023-02-16T13:49:59.008Z,7.51
2023-02-16T13:51:05.349Z,7.61
2023-02-16T13:52:09.132Z,7.67
2023-02-16T13:53:23.101Z,7.69
2023-02-16T13:54:51.481Z,7.66
2023-02-16T13:56:22.343Z,7.61
2023-02-16T13:57:50.881Z,7.50
2023-02-16T13:58:53.464Z,7.37
2023-02-16T14:00:02.082Z,7.30
2023-02-16T14:01:26.100Z,7.20
2023-02-16T14:02:56.012Z,7.05
2023-02-16T14:03:59.020Z,6.95
2023-02-16T14:05:04.091Z,6.89
2023-02-16T14:06:32.528Z,6.83
2023-02-16T14:07:38.315Z,6.70
2023-02-16T14:08:40.392Z,6.64
2023-02-16T14:09:49.188Z,6.58
2023-02-16T14:10:53.749Z,6.56
2023-02-16T14:11:57.420Z,6.56
2023-02-16T14:12:59.501Z,6.57
2023-02-16T14:14:02.230Z,6.62
2023-02-16T14:15:07.645Z,6.65
2023-02-16T14:16:17.843Z,6.69
2023-02-16T14:17:19.558Z,6.79
2023-02-16T14:18:40.044Z,6.90
2023-02-16T14:20:06.402Z,7.02
2023-02-16T14:21:24.552Z,7.08
2023-02-16T14:22:49.627Z,7.10
2023-02-16T14:23:57.897Z,7.14
2023-02-16T14:25:27.505Z,7.22
2023-02-16T14:26:31.998Z,7.29
2023-02-16T14:27:45.089Z,7.38
2023-02-16T14:29:16.011Z,7.52
2023-02-16T14:30:24.545Z,7.69
2023-02-16T14:31:28.921Z,7.76
2023-02-16T14:32:39.744Z,7.80
2023-02-16T14:33:46.631Z,7.87
2023-02-16T14:34:58.435Z,7.94
2023-02-16T14:36:00.149Z,8.00
2023-02-16T14:37:17.084Z,8.03
2023-02-16T14:38:28.959Z,7.98
2023-02-16T14:39:33.015Z,7.96
2023-02-16T14:40:35.447Z,7.96
2023-02-16T14:41:38.883Z,7.95
2023-02-16T14:43:01.685Z,7.88
2023-02-16T14:44:06.257Z,7.86
2023-02-16T14:45:50.864Z,7.83
2023-02-16T14:46:58.824Z,7.73
2023-02-16T14:48:22.248Z,7.63
2023-02-16T14:50:09.910Z,7.55
2023-02-16T14:51:51.975Z,7.55
2023-02-16T14:53:08.749Z,7.53
2023-02-16T14:54:49.024Z,7.40
2023-02-16T14:56:25.436Z,7.28
2023-02-16T14:57:39.656Z,7.12
2023-02-16T14:59:00.850Z,6.98
2023-02-16T15:00:19.720Z,6.84
2023-02-16T15:01:23.070Z,6.72
2023-02-16T15:02:27.763Z,6.60
2023-02-16T15:03:50.371Z,6.48
2023-02-16T15:04:52.803Z,6.35
2023-02-16T15:06:04.255Z,6.29
2023-02-16T15:07:07.624Z,6.20
2023-02-16T15:08:18.437Z,6.11
2023-02-16T15:09:31.147Z,6.04